createdAt,value
2024-03-15T00:00:25.781Z,88.47
2024-03-15T00:02:53.103Z,88.42
2024-03-15T00:05:22.446Z,88.37
2024-03-15T00:07:49.862Z,88.64
2024-03-15T00:10:17.444Z,88.83
2024-03-15T00:12:44.894Z,88.85
2024-03-15T00:15:12.814Z,89.02
2024-03-15T00:17:40.256Z,89.19
2024-03-15T00:20:09.324Z,89.48
2024-03-15T00:22:37.847Z,89.63
2024-03-15T00:25:05.693Z,89.79
2024-03-15T00:27:33.028Z,89.29
2024-03-15T00:30:00.528Z,89.34
2024-03-15T00:32:28.959Z,89.34
2024-03-15T00:34:56.449Z,89.18
2024-03-15T00:37:23.815Z,88.96
2024-03-15T00:39:51.344Z,88.73
2024-03-15T00:42:18.882Z,88.48
2024-03-15T00:44:46.374Z,88.19
2024-03-15T00:47:14.335Z,88.10
2024-03-15T00:49:41.715Z,88.15
2024-03-15T00:52:08.966Z,87.97
2024-03-15T00:54:36.293Z,87.65
2024-03-15T00:57:06.346Z,87.55
2024-03-15T00:59:33.835Z,87.17
2024-03-15T01:02:01.384Z,87.02
2024-03-15T01:04:29.042Z,86.63
2024-03-15T01:06:56.414Z,85.98
2024-03-15T01:09:23.993Z,85.51
2024-03-15T01:11:52.143Z,84.80
2024-03-15T01:14:19.384Z,83.95
2024-03-15T01:16:48.256Z,82.99
2024-03-15T01:19:16.136Z,83.29
2024-03-15T01:21:43.615Z,82.95
2024-03-15T01:24:14.210Z,82.93
2024-03-15T01:26:42.526Z,82.77
2024-03-15T01:29:09.936Z,82.48
2024-03-15T01:31:37.421Z,82.67
2024-03-15T01:34:04.810Z,82.79
2024-03-15T01:36:32.312Z,82.57
2024-03-15T01:38:59.797Z,82.58
2024-03-15T01:41:27.181Z,82.86
2024-03-15T01:43:54.453Z,82.99
2024-03-15T01:46:23.037Z,83.05
2024-03-15T01:48:50.449Z,83.02
2024-03-15T01:51:18.725Z,83.15
2024-03-15T01:53:46.412Z,83.17
2024-03-15T01:56:14.191Z,82.90
2024-03-15T01:58:41.524Z,82.97
2024-03-15T02:01:08.975Z,82.38
2024-03-15T02:03:37.352Z,82.12
2024-03-15T02:06:07.106Z,82.05
2024-03-15T02:08:35.535Z,81.90
2024-03-15T02:11:04.193Z,82.01
2024-03-15T02:13:31.673Z,81.95
2024-03-15T02:15:58.975Z,81.75
2024-03-15T02:18:26.701Z,81.47
2024-03-15T02:20:53.940Z,81.42
2024-03-15T02:23:21.234Z,81.64
2024-03-15T02:25:48.608Z,81.54
2024-03-15T02:28:15.852Z,81.56
2024-03-15T02:30:43.323Z,81.76
2024-03-15T02:33:11.971Z,81.82
2024-03-15T02:35:39.442Z,81.33
2024-03-15T02:38:07.257Z,81.64
2024-03-15T02:40:34.553Z,81.43
2024-03-15T02:43:02.760Z,81.67
2024-03-15T02:45:30.469Z,82.04
2024-03-15T02:47:59.558Z,82.29
2024-03-15T02:50:27.014Z,82.71
2024-03-15T02:52:54.433Z,83.33
2024-03-15T02:55:21.894Z,83.43
2024-03-15T02:57:49.190Z,84.56
2024-03-15T03:00:16.901Z,84.25
2024-03-15T03:02:44.235Z,84.65
2024-03-15T03:05:13.817Z,85.13
2024-03-15T03:07:41.351Z,85.66
2024-03-15T03:10:09.213Z,86.09
2024-03-15T03:12:37.670Z,86.28
2024-03-15T03:15:05.590Z,86.63
2024-03-15T03:17:33.289Z,86.66
2024-03-15T03:20:01.414Z,86.67
2024-03-15T03:22:28.703Z,86.65
2024-03-15T03:24:56.148Z,86.76
2024-03-15T03:27:23.432Z,86.88
2024-03-15T03:29:50.868Z,87.16
2024-03-15T03:32:18.152Z,87.48
2024-03-15T03:34:45.542Z,87.71
2024-03-15T03:37:14.028Z,87.98
2024-03-15T03:39:41.483Z,87.89
2024-03-15T03:42:09.050Z,87.86
2024-03-15T03:44:38.086Z,88.03
2024-03-15T03:47:05.589Z,87.92
2024-03-15T03:49:33.033Z,87.95
2024-03-15T03:52:00.313Z,87.82
2024-03-15T03:54:27.784Z,88.04
2024-03-15T03:56:55.110Z,88.08
2024-03-15T03:59:22.318Z,87.83
2024-03-15T04:01:49.804Z,87.68
2024-03-15T04:04:17.439Z,87.58
2024-03-15T04:06:51.077Z,87.64
2024-03-15T04:09:25.675Z,87.14
2024-03-15T04:11:53.019Z,86.71
2024-03-15T04:14:21.579Z,86.88
2024-03-15T04:16:48.863Z,86.75
2024-03-15T04:19:16.179Z,86.72
2024-03-15T04:21:44.198Z,86.63
2024-03-15T04:24:13.094Z,86.90
2024-03-15T04:26:40.371Z,86.95
2024-03-15T04:29:08.560Z,87.28
2024-03-15T04:31:35.987Z,87.38
2024-03-15T04:34:03.318Z,87.66
2024-03-15T04:36:31.921Z,87.78
2024-03-15T04:39:00.671Z,87.96
2024-03-15T04:41:28.138Z,88.00
2024-03-15T04:43:55.453Z,88.16
2024-03-15T04:46:23.351Z,88.10
2024-03-15T04:48:50.600Z,88.02
2024-03-15T04:51:19.388Z,88.25
2024-03-15T04:53:46.636Z,88.33
2024-03-15T04:56:15.324Z,88.21
2024-03-15T04:58:42.644Z,88.30
2024-03-15T05:01:11.852Z,88.18
2024-03-15T05:03:39.810Z,87.55
2024-03-15T05:06:12.909Z,87.62
2024-03-15T05:08:40.920Z,87.58
2024-03-15T05:11:09.273Z,87.53
2024-03-15T05:13:37.316Z,86.78
2024-03-15T05:16:05.000Z,86.07
2024-03-15T05:18:32.435Z,86.42
2024-03-15T05:20:59.699Z,86.38
2024-03-15T05:23:27.137Z,83.88
2024-03-15T05:25:55.966Z,80.55
2024-03-15T05:28:23.507Z,80.04
2024-03-15T05:30:51.173Z,73.69
2024-03-15T05:33:18.803Z,72.07
2024-03-15T05:35:46.096Z,70.05
2024-03-15T05:38:13.347Z,63.75
2024-03-15T05:40:40.764Z,61.27
2024-03-15T05:43:07.975Z,58.09
2024-03-15T05:45:35.185Z,58.67
2024-03-15T05:48:03.023Z,57.34
2024-03-15T05:50:31.990Z,54.92
2024-03-15T05:53:01.603Z,50.63
2024-03-15T05:55:29.202Z,50.43
2024-03-15T05:57:56.490Z,46.76
2024-03-15T06:00:24.734Z,47.75
2024-03-15T06:02:53.579Z,46.60
2024-03-15T06:05:21.274Z,45.85
2024-03-15T06:07:52.149Z,45.24
2024-03-15T06:10:21.156Z,44.26
2024-03-15T06:12:49.200Z,42.96
2024-03-15T06:15:16.671Z,42.58
2024-03-15T06:17:44.041Z,41.46
2024-03-15T06:20:11.825Z,39.15
2024-03-15T06:22:39.918Z,38.05
2024-03-15T06:25:07.589Z,37.84
2024-03-15T06:27:35.006Z,37.64
2024-03-15T06:30:04.679Z,37.19
2024-03-15T06:32:38.022Z,36.31
2024-03-15T06:35:28.709Z,36.54
2024-03-15T06:38:08.795Z,36.28
2024-03-15T06:40:57.808Z,34.72
2024-03-15T06:43:37.437Z,36.22
2024-03-15T06:46:11.214Z,35.99
2024-03-15T06:49:01.633Z,35.50
2024-03-15T06:51:47.740Z,35.21
2024-03-15T06:54:16.551Z,37.08
2024-03-15T06:56:44.233Z,38.51
2024-03-15T06:59:11.801Z,38.70
2024-03-15T07:01:39.069Z,39.65
2024-03-15T07:04:09.650Z,39.90
2024-03-15T07:06:37.308Z,40.11
2024-03-15T07:09:12.918Z,40.49
2024-03-15T07:11:40.233Z,40.00
2024-03-15T07:14:10.192Z,40.50
2024-03-15T07:16:37.497Z,40.17
2024-03-15T07:19:07.032Z,39.88
2024-03-15T07:21:34.810Z,41.49
2024-03-15T07:24:02.213Z,41.37
2024-03-15T07:26:30.322Z,42.62
2024-03-15T07:28:58.838Z,43.53
2024-03-15T07:31:26.123Z,44.15
2024-03-15T07:33:53.547Z,45.76
2024-03-15T07:36:22.616Z,44.92
2024-03-15T07:38:50.087Z,44.30
2024-03-15T07:41:18.524Z,42.87
2024-03-15T07:43:45.922Z,41.77
2024-03-15T07:46:13.221Z,41.17
2024-03-15T07:48:43.052Z,40.65
2024-03-15T07:51:10.488Z,39.30
2024-03-15T07:53:37.874Z,40.03
2024-03-15T07:56:10.543Z,41.21
2024-03-15T07:58:38.505Z,38.89
2024-03-15T08:01:12.273Z,40.21
2024-03-15T08:03:39.651Z,41.08
2024-03-15T08:06:07.640Z,41.42
2024-03-15T08:08:35.009Z,39.44
2024-03-15T08:11:05.385Z,39.41
2024-03-15T08:13:35.121Z,40.28
2024-03-15T08:16:25.419Z,42.24
2024-03-15T08:18:55.076Z,41.51
2024-03-15T08:21:26.205Z,39.64
2024-03-15T08:23:53.903Z,41.72
2024-03-15T08:26:22.305Z,41.27
2024-03-15T08:28:53.193Z,42.17
2024-03-15T08:31:20.617Z,40.51
2024-03-15T08:33:49.190Z,42.40
2024-03-15T08:36:16.523Z,41.84
2024-03-15T08:38:43.941Z,41.70
2024-03-15T08:41:13.905Z,41.44
2024-03-15T08:43:41.482Z,41.01
2024-03-15T08:46:08.949Z,41.58
2024-03-15T08:48:36.532Z,40.33
2024-03-15T08:51:05.054Z,41.64
2024-03-15T08:53:33.440Z,43.18
2024-03-15T08:56:01.807Z,42.35
2024-03-15T08:58:29.230Z,42.75
2024-03-15T09:00:57.360Z,45.51
2024-03-15T09:03:28.022Z,46.58
2024-03-15T09:06:00.038Z,46.50
2024-03-15T09:08:27.570Z,46.06
2024-03-15T09:10:54.835Z,45.33
2024-03-15T09:13:22.526Z,49.00
2024-03-15T09:15:50.101Z,49.21
2024-03-15T09:18:20.220Z,49.70
2024-03-15T09:20:48.695Z,49.94
2024-03-15T09:23:16.175Z,50.60
2024-03-15T09:25:45.936Z,50.72
2024-03-15T09:28:13.970Z,51.67
2024-03-15T09:31:01.488Z,48.46
2024-03-15T09:33:36.857Z,46.02
2024-03-15T09:36:06.644Z,47.81
2024-03-15T09:38:34.420Z,43.96
2024-03-15T09:41:01.829Z,43.80
2024-03-15T09:43:31.667Z,45.67
2024-03-15T09:45:59.486Z,44.35
2024-03-15T09:48:27.723Z,45.99
2024-03-15T09:50:58.036Z,42.73
2024-03-15T09:53:25.756Z,43.17
2024-03-15T09:55:54.962Z,42.58
2024-03-15T09:58:22.431Z,43.17
2024-03-15T10:00:50.078Z,40.76
2024-03-15T10:03:17.641Z,43.79
2024-03-15T10:05:44.955Z,40.01
2024-03-15T10:08:14.102Z,43.09
2024-03-15T10:10:46.022Z,41.69
2024-03-15T10:13:15.830Z,44.58
2024-03-15T10:15:46.424Z,43.96
2024-03-15T10:18:13.986Z,45.87
2024-03-15T10:20:41.448Z,47.01
2024-03-15T10:23:12.489Z,46.70
2024-03-15T10:25:40.357Z,46.91
2024-03-15T10:28:13.007Z,47.35
2024-03-15T10:30:44.316Z,45.32
2024-03-15T10:33:11.777Z,47.60
2024-03-15T10:35:39.663Z,48.87
2024-03-15T10:38:07.493Z,49.79
2024-03-15T10:40:37.304Z,48.92
2024-03-15T10:43:10.261Z,52.95
2024-03-15T10:45:37.913Z,51.24
2024-03-15T10:48:10.009Z,51.11
2024-03-15T10:50:39.741Z,51.87
2024-03-15T10:53:10.594Z,52.85
2024-03-15T10:55:38.106Z,53.16
2024-03-15T10:58:06.134Z,53.62
2024-03-15T11:00:34.071Z,53.03
2024-03-15T11:03:19.387Z,53.94
2024-03-15T11:05:47.246Z,55.08
2024-03-15T11:08:21.430Z,57.28
2024-03-15T11:11:04.303Z,55.79
2024-03-15T11:13:38.294Z,59.00
2024-03-15T11:16:19.953Z,59.91
2024-03-15T11:18:49.981Z,60.74
2024-03-15T11:21:24.149Z,62.80
2024-03-15T11:23:52.743Z,64.41
2024-03-15T11:26:24.222Z,66.49
2024-03-15T11:29:00.048Z,68.41
2024-03-15T11:31:30.727Z,68.85
2024-03-15T11:34:01.163Z,69.08
2024-03-15T11:36:30.112Z,67.66
2024-03-15T11:38:57.913Z,66.62
2024-03-15T11:41:25.292Z,67.03
2024-03-15T11:43:56.398Z,65.48
2024-03-15T11:46:24.651Z,67.58
2024-03-15T11:48:52.639Z,66.93
2024-03-15T11:51:20.544Z,69.26
2024-03-15T11:53:47.977Z,70.28
2024-03-15T11:56:15.442Z,71.06
2024-03-15T11:58:42.829Z,72.61
2024-03-15T12:01:11.864Z,73.89
2024-03-15T12:03:42.743Z,72.32
2024-03-15T12:06:12.251Z,72.76
2024-03-15T12:08:42.626Z,73.99
2024-03-15T12:11:15.296Z,72.60
2024-03-15T12:13:47.632Z,74.64
2024-03-15T12:16:15.021Z,74.09
2024-03-15T12:18:42.378Z,74.77
2024-03-15T12:21:12.356Z,74.15
2024-03-15T12:23:39.735Z,74.95
2024-03-15T12:26:08.102Z,76.74
2024-03-15T12:28:36.413Z,78.60
2024-03-15T12:31:03.822Z,77.38
2024-03-15T12:33:31.545Z,76.25
2024-03-15T12:36:02.617Z,77.01
2024-03-15T12:38:30.146Z,78.54
2024-03-15T12:40:57.723Z,77.91
2024-03-15T12:43:26.102Z,78.46
2024-03-15T12:45:53.742Z,79.93
2024-03-15T12:48:21.055Z,81.08
2024-03-15T12:50:48.341Z,80.18
2024-03-15T12:53:18.092Z,80.50
2024-03-15T12:55:45.878Z,80.96
2024-03-15T12:58:13.215Z,79.54
2024-03-15T13:00:40.627Z,81.80
2024-03-15T13:03:12.186Z,80.67
2024-03-15T13:05:39.681Z,80.89
2024-03-15T13:08:06.909Z,80.02
2024-03-15T13:10:34.870Z,79.36
2024-03-15T13:13:06.113Z,77.26
2024-03-15T13:15:37.653Z,75.40
2024-03-15T13:18:05.503Z,77.29
2024-03-15T13:20:32.826Z,77.94
2024-03-15T13:23:01.138Z,78.49
2024-03-15T13:25:36.008Z,78.67
2024-03-15T13:28:09.358Z,81.31
2024-03-15T13:30:38.805Z,81.23
2024-03-15T13:33:10.568Z,81.80
2024-03-15T13:35:38.770Z,82.32
2024-03-15T13:38:06.721Z,82.58
2024-03-15T13:40:34.832Z,85.10
2024-03-15T13:43:04.608Z,84.71
2024-03-15T13:45:32.298Z,86.31
2024-03-15T13:48:00.991Z,85.01
2024-03-15T13:50:30.167Z,83.60
2024-03-15T13:52:58.944Z,84.51
2024-03-15T13:55:26.619Z,85.13
2024-03-15T13:57:54.320Z,84.61
2024-03-15T14:00:34.626Z,87.34
2024-03-15T14:03:06.400Z,86.44
2024-03-15T14:05:40.105Z,88.07
2024-03-15T14:08:17.774Z,88.57
2024-03-15T14:10:45.846Z,88.99
2024-03-15T14:13:19.912Z,88.16
2024-03-15T14:15:49.283Z,86.68
2024-03-15T14:18:17.954Z,86.98
2024-03-15T14:20:47.109Z,88.55
2024-03-15T14:23:14.892Z,89.86
2024-03-15T14:25:46.481Z,90.18
2024-03-15T14:28:14.277Z,89.19
2024-03-15T14:30:41.809Z,88.64
2024-03-15T14:33:11.331Z,88.99
2024-03-15T14:35:39.592Z,90.18
2024-03-15T14:38:10.406Z,90.80
2024-03-15T14:40:40.111Z,90.66
2024-03-15T14:43:09.560Z,89.87
2024-03-15T14:45:38.360Z,91.03
2024-03-15T14:48:15.078Z,90.08
2024-03-15T14:50:45.092Z,90.99
2024-03-15T14:53:16.101Z,91.94
2024-03-15T14:55:45.778Z,91.17
2024-03-15T14:58:14.403Z,90.77
2024-03-15T15:00:44.063Z,91.98
2024-03-15T15:03:12.213Z,90.78
2024-03-15T15:05:40.066Z,91.53
2024-03-15T15:08:10.585Z,89.66
2024-03-15T15:10:41.879Z,91.50
2024-03-15T15:13:12.983Z,92.51
2024-03-15T15:15:42.901Z,92.89
2024-03-15T15:18:12.589Z,94.64
2024-03-15T15:20:40.709Z,94.92
2024-03-15T15:23:09.257Z,93.83
2024-03-15T15:25:38.193Z,91.12
2024-03-15T15:28:05.825Z,90.68
2024-03-15T15:30:34.212Z,90.18
2024-03-15T15:33:02.132Z,89.47
2024-03-15T15:35:30.391Z,87.74
2024-03-15T15:37:58.841Z,86.50
2024-03-15T15:40:30.752Z,85.97
2024-03-15T15:43:00.246Z,85.92
2024-03-15T15:45:34.952Z,86.11
2024-03-15T15:48:08.207Z,86.87
2024-03-15T15:50:38.590Z,86.20
2024-03-15T15:53:06.708Z,86.81
2024-03-15T15:55:36.642Z,88.22
2024-03-15T15:58:05.737Z,88.37
2024-03-15T16:00:33.465Z,89.04
2024-03-15T16:03:02.685Z,89.34
2024-03-15T16:05:31.574Z,89.64
2024-03-15T16:08:03.549Z,90.28
2024-03-15T16:10:31.041Z,90.33
2024-03-15T16:13:02.783Z,90.65
2024-03-15T16:15:31.294Z,90.99
2024-03-15T16:17:58.788Z,91.69
2024-03-15T16:20:28.243Z,92.22
2024-03-15T16:22:56.378Z,90.59
2024-03-15T16:25:23.546Z,90.29
2024-03-15T16:27:50.891Z,90.16
2024-03-15T16:30:18.970Z,88.46
2024-03-15T16:32:46.478Z,88.63
2024-03-15T16:35:14.603Z,89.49
2024-03-15T16:37:42.252Z,90.42
2024-03-15T16:40:11.508Z,90.99
2024-03-15T16:42:38.834Z,91.70
2024-03-15T16:45:07.488Z,92.15
2024-03-15T16:47:34.789Z,92.49
2024-03-15T16:50:02.937Z,91.56
2024-03-15T16:52:30.222Z,91.13
2024-03-15T16:54:57.745Z,91.89
2024-03-15T16:57:26.458Z,92.42
2024-03-15T16:59:53.841Z,92.73
2024-03-15T17:02:21.919Z,92.20
2024-03-15T17:04:50.518Z,92.58
2024-03-15T17:07:17.895Z,93.21
2024-03-15T17:09:45.364Z,93.89
2024-03-15T17:12:12.590Z,93.97
2024-03-15T17:14:39.932Z,94.58
2024-03-15T17:17:07.210Z,94.80
2024-03-15T17:19:34.587Z,94.87
2024-03-15T17:22:01.861Z,94.50
2024-03-15T17:24:30.384Z,93.98
2024-03-15T17:26:58.017Z,93.91
2024-03-15T17:29:25.416Z,93.55
2024-03-15T17:31:52.860Z,93.50
2024-03-15T17:34:20.248Z,93.31
2024-03-15T17:36:47.667Z,93.09
2024-03-15T17:39:16.406Z,92.29
2024-03-15T17:41:44.584Z,92.22
2024-03-15T17:44:12.245Z,91.76
2024-03-15T17:46:40.192Z,91.74
2024-03-15T17:49:07.732Z,91.52
2024-03-15T17:51:35.682Z,92.42
2024-03-15T17:54:03.199Z,90.96
2024-03-15T17:56:30.482Z,90.62
2024-03-15T17:58:57.839Z,90.11
2024-03-15T18:01:25.056Z,90.62
2024-03-15T18:03:55.211Z,90.55
2024-03-15T18:06:22.843Z,90.93
2024-03-15T18:08:50.116Z,90.85
2024-03-15T18:11:17.584Z,90.50
2024-03-15T18:13:44.830Z,90.91
2024-03-15T18:16:12.335Z,90.88
2024-03-15T18:18:40.041Z,91.41
2024-03-15T18:21:07.672Z,91.55
2024-03-15T18:23:34.868Z,91.10
2024-03-15T18:26:02.239Z,91.04
2024-03-15T18:28:31.495Z,91.07
2024-03-15T18:31:00.649Z,91.28
2024-03-15T18:33:28.009Z,91.17
2024-03-15T18:35:55.561Z,91.67
2024-03-15T18:38:22.891Z,91.30
2024-03-15T18:40:50.422Z,91.44
2024-03-15T18:43:18.544Z,91.52
2024-03-15T18:45:48.930Z,91.61
2024-03-15T18:48:16.519Z,91.62
2024-03-15T18:50:43.948Z,91.25
2024-03-15T18:53:11.230Z,91.39
2024-03-15T18:55:38.474Z,91.34
2024-03-15T18:58:06.280Z,91.30
2024-03-15T19:00:34.802Z,91.67
2024-03-15T19:03:05.033Z,91.84
2024-03-15T19:05:33.745Z,92.12
2024-03-15T19:08:01.069Z,92.82
2024-03-15T19:10:28.803Z,93.38
2024-03-15T19:12:56.247Z,93.48
2024-03-15T19:15:29.451Z,93.49
2024-03-15T19:17:57.507Z,93.77
2024-03-15T19:20:26.355Z,93.60
2024-03-15T19:22:53.968Z,93.74
2024-03-15T19:25:21.398Z,93.35
2024-03-15T19:27:49.100Z,93.67
2024-03-15T19:30:17.074Z,93.63
2024-03-15T19:32:44.849Z,93.60
2024-03-15T19:35:13.506Z,93.72
2024-03-15T19:37:44.609Z,93.63
2024-03-15T19:40:15.115Z,93.71
2024-03-15T19:42:43.442Z,93.81
2024-03-15T19:45:11.847Z,93.51
2024-03-15T19:47:39.200Z,93.48
2024-03-15T19:50:07.396Z,93.54
2024-03-15T19:52:35.851Z,93.64
2024-03-15T19:55:03.285Z,93.59
2024-03-15T19:57:30.689Z,93.37
2024-03-15T19:59:57.956Z,93.54
2024-03-15T20:02:25.538Z,93.25
2024-03-15T20:04:52.846Z,93.38
2024-03-15T20:07:20.320Z,93.52
2024-03-15T20:09:47.686Z,93.38
2024-03-15T20:12:15.247Z,93.53
2024-03-15T20:14:42.545Z,93.61
2024-03-15T20:17:10.424Z,93.68
2024-03-15T20:19:37.812Z,93.88
2024-03-15T20:22:05.680Z,93.91
2024-03-15T20:24:33.140Z,93.73
2024-03-15T20:27:01.264Z,94.00
2024-03-15T20:29:29.503Z,94.10
2024-03-15T20:31:56.797Z,94.26
2024-03-15T20:34:26.597Z,94.45
2024-03-15T20:36:54.074Z,94.82
2024-03-15T20:39:23.727Z,94.53
2024-03-15T20:41:51.149Z,94.47
2024-03-15T20:44:18.466Z,94.50
2024-03-15T20:46:45.735Z,94.58
2024-03-15T20:49:13.117Z,94.34
2024-03-15T20:51:41.041Z,94.25
2024-03-15T20:54:09.368Z,94.26
2024-03-15T20:56:36.958Z,94.00
2024-03-15T20:59:05.825Z,93.97
2024-03-15T21:01:33.483Z,93.93
2024-03-15T21:04:02.867Z,93.81
2024-03-15T21:06:31.795Z,94.03
2024-03-15T21:08:59.408Z,93.87
2024-03-15T21:11:27.115Z,93.77
2024-03-15T21:13:54.699Z,93.82
2024-03-15T21:16:22.050Z,93.67
2024-03-15T21:18:52.167Z,93.50
2024-03-15T21:21:22.610Z,92.71
2024-03-15T21:23:50.541Z,92.54
2024-03-15T21:26:18.041Z,92.29
2024-03-15T21:28:45.569Z,92.75
2024-03-15T21:31:13.334Z,92.81
2024-03-15T21:33:40.671Z,92.53
2024-03-15T21:36:10.085Z,91.82
2024-03-15T21:38:39.680Z,91.75
2024-03-15T21:41:07.306Z,90.74
2024-03-15T21:43:35.122Z,89.66
2024-03-15T21:46:06.271Z,87.91
2024-03-15T21:48:34.962Z,87.68
2024-03-15T21:51:03.194Z,86.73
2024-03-15T21:53:31.776Z,86.60
2024-03-15T21:55:59.191Z,85.85
2024-03-15T21:58:28.114Z,85.06
2024-03-15T22:00:58.763Z,83.87
2024-03-15T22:03:27.553Z,83.40
2024-03-15T22:05:58.229Z,82.86
2024-03-15T22:08:25.777Z,82.08
2024-03-15T22:10:56.798Z,81.93
2024-03-15T22:13:24.360Z,81.89
2024-03-15T22:15:58.812Z,81.75
2024-03-15T22:18:26.388Z,81.90
2024-03-15T22:20:53.742Z,82.01
2024-03-15T22:23:21.128Z,81.79
2024-03-15T22:25:51.477Z,81.44
2024-03-15T22:28:18.855Z,80.87
2024-03-15T22:30:56.886Z,80.52
2024-03-15T22:33:24.702Z,80.33
2024-03-15T22:35:52.445Z,80.11
2024-03-15T22:38:19.833Z,79.45
2024-03-15T22:40:49.873Z,78.85
2024-03-15T22:43:17.530Z,78.39
2024-03-15T22:45:49.066Z,78.03
2024-03-15T22:48:16.744Z,77.89
2024-03-15T22:50:45.093Z,77.86
2024-03-15T22:53:13.731Z,78.09
2024-03-15T22:55:46.205Z,78.18
2024-03-15T22:58:13.554Z,78.44
2024-03-15T23:00:44.510Z,78.49
2024-03-15T23:03:12.139Z,78.39
2024-03-15T23:05:39.445Z,77.87
2024-03-15T23:08:07.016Z,78.34
2024-03-15T23:10:35.765Z,78.55
2024-03-15T23:13:07.993Z,78.61
2024-03-15T23:15:36.241Z,78.03
2024-03-15T23:18:03.785Z,77.64
2024-03-15T23:20:31.303Z,77.05
2024-03-15T23:22:58.742Z,76.04
2024-03-15T23:25:26.160Z,76.14
2024-03-15T23:27:54.431Z,76.18
2024-03-15T23:30:21.932Z,76.21
2024-03-15T23:32:49.445Z,76.19
2024-03-15T23:35:16.778Z,76.39
2024-03-15T23:37:44.248Z,76.50
2024-03-15T23:40:13.749Z,76.70
2024-03-15T23:42:41.407Z,76.74
2024-03-15T23:45:09.013Z,77.18
2024-03-15T23:47:37.209Z,77.54
2024-03-15T23:50:06.202Z,77.79
2024-03-15T23:52:33.698Z,78.23
2024-03-15T23:55:01.196Z,78.16
2024-03-15T23:57:28.652Z,78.29
2024-03-15T23:59:56.754Z,78.60
